• Join FlightAware (Why Join?)
  • Login
  • US Flag GB Flag 
08:40 EDT


 

Airport Tracker/Info


-or-


 

Live Flight TrackerFlight Track Log ✈ EGF4174 ✈ 11-Jun-2013 ✈ KSYR - KORD

Flight Track Log - Related Links

Times and Time Zones

All times are in EDT time to prevent confusion due to time zone crossing. See the EGF4174 flight status page for this flight to view local times or setup timezone preferences in your user account.

Time Position Orientation Groundspeed Altitude Reporting Facility
EDT Latitude Longitude Course Direction KTS MPH feet Rate Location/Type
16:51 43.1075 -76.1347 286° West 139 160 1,200  Level Boston Center
16:52 43.1247 -76.1783 298° West 156 180 3,400 2,400 Climbing Boston Center
16:53 43.1564 -76.2372 306° West 192 221 5,900 2,160 Climbing Boston Center
16:54 43.1833 -76.4297 270° West  Level FlightAware Approximate
16:55 43.2053 -76.5369 281° West  Level FlightAware Approximate
16:56 43.2246 -76.6535 286° West  Level FlightAware Approximate
16:56 43.1964 -76.4278 286° West 222 255 10,700  Level Cleveland Center
16:57 43.2492 -76.7682 286° West  Level FlightAware Approximate
16:57 43.2167 -76.5264 286° West 248 285 12,100  Level Cleveland Center
16:58 43.2350 -76.6364 283° West 279 321 13,800 1,680 Climbing Cleveland Center
16:59 43.2533 -76.7492 283° West 295 339 15,500 1,500 Climbing Cleveland Center
17:00 43.2717 -76.8650 282° West 307 353 16,900 720 Climbing Cleveland Center
17:01 43.2925 -76.9919 283° West 323 372 17,000 360 Climbing Cleveland Center
17:02 43.3131 -77.1278 282° West 350 403 17,700 1,260 Climbing Cleveland Center
17:03 43.2961 -77.2600 260° West 350 403 19,600 1,800 Climbing Cleveland Center
17:04 43.2872 -77.3889 265° West 350 403 21,400 1,740 Climbing Cleveland Center
17:05 43.2825 -77.5203 267° West 350 403 23,100 1,500 Climbing Cleveland Center
17:06 43.2817 -77.6517 270° West 350 403 24,500 1,320 Climbing Cleveland Center
17:07 43.2808 -77.7828 270° West 350 403 25,800 1,260 Climbing Cleveland Center
17:08 43.2756 -77.9114 267° West 350 403 27,100 1,320 Climbing Cleveland Center
17:09 43.2722 -78.0400 268° West 350 403 28,500 1,320 Climbing Cleveland Center
17:10 43.2686 -78.1656 268° West 350 403 29,800 720 Climbing Cleveland Center
17:11 43.2631 -78.2969 267° West 345 397 30,000 60 Climbing Cleveland Center
17:12 43.2614 -78.4367 269° West 356 410 30,000  Level Cleveland Center
17:13 43.2556 -78.5794 267° West 374 430 30,000  Level Cleveland Center
17:14 43.2519 -78.7278 268° West 380 437 30,000  Level Cleveland Center
17:15 43.2458 -78.8733 267° West 385 443 30,000  Level Cleveland Center
17:15 43.2333 -78.9000 237° Southwest 390 449 30,000  Level Toronto Center
17:16 43.2333 -79.0333 270° West 390 449 30,000  Level Toronto Center
17:17 43.2167 -79.2000 262° West 390 449 30,000  Level Toronto Center
17:18 43.2167 -79.3333 270° West 390 449 30,000  Level Toronto Center
17:19 43.2167 -79.4667 270° West 370 426 30,000  Level Toronto Center
17:20 43.2000 -79.6333 262° West 370 426 30,000  Level Toronto Center
17:21 43.2000 -79.7667 270° West 370 426 30,000  Level Toronto Center
17:22 43.2000 -79.9000 270° West 370 426 30,000  Level Toronto Center
17:23 43.1833 -80.0500 261° West 370 426 30,000  Level Toronto Center
17:24 43.1833 -80.1833 270° West 370 426 30,000  Level Toronto Center
17:25 43.1833 -80.3167 270° West 370 426 30,000  Level Toronto Center
17:26 43.2000 -80.4500 280° West 360 414 30,000  Level Toronto Center
17:27 43.2500 -80.5500 304° West 350 403 30,000  Level Toronto Center
17:28 43.2667 -80.7167 278° West 360 414 30,000  Level Toronto Center
17:29 43.2333 -80.8500 251° West 380 437 30,000  Level Toronto Center
17:30 43.2333 -80.9833 270° West 380 437 30,000  Level Toronto Center
17:31 43.2167 -81.1167 260° West 380 437 30,000  Level Toronto Center
17:32 43.2000 -81.2833 262° West 380 437 30,000  Level Toronto Center
17:33 43.2000 -81.4000 270° West 360 414 30,000  Level Toronto Center
17:34 43.1833 -81.5333 260° West 360 414 30,000  Level Toronto Center
17:35 43.1667 -81.6833 261° West 370 426 30,000  Level Toronto Center
17:36 43.1667 -81.8333 270° West 370 426 30,000  Level Toronto Center
17:37 43.1333 -81.9667 251° West 370 426 30,000  Level Toronto Center
17:38 43.1167 -82.1000 260° West 370 426 30,000  Level Toronto Center
17:39 43.1167 -82.2333 270° West 370 426 30,000  Level Toronto Center
17:40 43.1000 -82.3667 260° West 370 426 30,000  Level Toronto Center
17:41 43.1333 -82.5167 287° West 350 403 30,000  Level Toronto Center
17:42 43.1833 -82.6333 300° West 350 403 30,000  Level Toronto Center
17:42 43.2061 -82.6681 312° West 347 399 30,000  Level Cleveland Center
17:43 43.2561 -82.7808 301° West 347 399 30,000  Level Cleveland Center
17:44 43.3042 -82.8911 301° West 347 399 30,000  Level Cleveland Center
17:45 43.3497 -83.0014 300° West 336 387 30,000  Level Cleveland Center
17:46 43.3953 -83.1117 300° West 336 387 30,000  Level Cleveland Center
17:47 43.3717 -83.2364 255° West 312 359 30,000  Level Cleveland Center
17:48 43.2617 -83.3028 204° Southwest 320 368 30,000  Level Cleveland Center
17:49 43.1497 -83.3692 203° Southwest 378 435 30,000  Level Cleveland Center
17:50 43.0803 -83.4825 230° Southwest 390 449 30,000  Level Cleveland Center
17:51 43.0247 -83.6136 240° Southwest 390 449 30,000  Level Cleveland Center
17:52 42.9714 -83.7386 240° Southwest 390 449 30,000  Level Cleveland Center
17:53 42.9531 -83.8767 260° West 379 436 30,000 -300 Level Cleveland Center
17:54 42.9408 -84.0094 263° West 369 425 29,400 -720 Descending Cleveland Center
17:56 42.9164 -84.2644 263° West 369 425 28,000 -480 Descending Chicago Center
17:57 42.9025 -84.4036 262° West 371 427 28,000  Level Chicago Center
17:58 42.8881 -84.5419 262° West 371 427 28,000  Level Chicago Center
17:59 42.8742 -84.6819 262° West 373 429 28,000  Level Chicago Center
18:00 42.8597 -84.8206 262° West 372 428 28,000  Level Chicago Center
18:01 42.8447 -84.9606 262° West 373 429 28,000 -120 Level Chicago Center
18:02 42.8267 -85.1283 262° West 373 429 27,800 -720 Descending Chicago Center
18:03 42.8117 -85.2703 262° West 377 434 26,500 -1,680 Descending Chicago Center
18:04 42.7958 -85.4169 262° West 385 443 24,400 -2,040 Descending Chicago Center
18:05 42.7750 -85.5664 259° West 396 456 22,300 -2,040 Descending Chicago Center
18:06 42.7489 -85.7050 256° West 383 441 20,300 -1,140 Descending Chicago Center
18:07 42.7247 -85.8422 257° West 374 430 20,000 -180 Descending Chicago Center
18:09 42.6986 -85.9808 256° West 374 430 20,000  Level Chicago Center
18:10 42.6692 -86.1486 257° West 378 435 20,000  Level Chicago Center
18:11 42.6436 -86.2864 256° West 375 432 20,000 -120 Level Chicago Center
18:12 42.6172 -86.4203 255° West 368 423 19,800 -1,080 Descending Chicago Center
18:13 42.5908 -86.5614 256° West 382 440 17,800 -1,980 Descending Chicago Center
18:14 42.5678 -86.6883 256° West 352 405 15,700 -2,040 Descending Chicago Center
18:15 42.5406 -86.8081 253° West 337 388 13,600 -2,220 Descending Chicago Center
18:16 42.5011 -86.9456 249° West 328 377 11,200 -1,740 Descending Chicago Center
18:17 42.4722 -87.0472 249° West 291 335 10,100 -1,020 Descending Chicago Center
18:18 42.4461 -87.1422 250° West 271 312 9,100 -540 Descending Chicago Center
18:19 42.4178 -87.2414 249° West 280 322 9,000 -480 Descending Chicago Center
18:20 42.3389 -87.2550 187° South 304 350 8,200 -1,020 Descending Chicago Center
18:21 42.2500 -87.2608 183° South 298 343 7,000 -780 Descending Chicago Center
18:22 42.1703 -87.2706 185° South 290 334 6,700 -840 Descending Chicago Center
18:23 42.0767 -87.2811 185° South 282 325 5,300 -840 Descending Chicago Center
18:24 42.0178 -87.3406 217° Southwest 268 308 5,000 -180 Descending Chicago Center
18:25 41.9886 -87.4286 246° West 260 299 5,000  Level Chicago Center
18:26 41.9831 -87.5217 265° West 253 291 5,000 -120 Level Chicago Center
18:27 41.9842 -87.6053 271° West 244 281 4,800 -240 Descending Chicago Center